sensor_id;sensor_type;location;lat;lon;timestamp;P1;durP1;ratioP1;P2;durP2;ratioP2
54945;SDS011;40846;44.788;20.486;2023-03-22T00:01:11;24.42;;;11.55;;
54945;SDS011;40846;44.788;20.486;2023-03-22T00:03:38;19.65;;;11.43;;
54945;SDS011;40846;44.788;20.486;2023-03-22T00:06:05;30.45;;;11.27;;
54945;SDS011;40846;44.788;20.486;2023-03-22T00:08:31;34.45;;;12.20;;
54945;SDS011;40846;44.788;20.486;2023-03-22T00:10:57;23.00;;;10.68;;
54945;SDS011;40846;44.788;20.486;2023-03-22T00:13:24;19.63;;;11.02;;
54945;SDS011;40846;44.788;20.486;2023-03-22T00:15:50;23.70;;;11.82;;
54945;SDS011;40846;44.788;20.486;2023-03-22T00:18:17;20.45;;;12.15;;
54945;SDS011;40846;44.788;20.486;2023-03-22T00:20:50;19.92;;;10.32;;
54945;SDS011;40846;44.788;20.486;2023-03-22T00:23:16;26.85;;;11.55;;
54945;SDS011;40846;44.788;20.486;2023-03-22T00:25:43;20.98;;;11.88;;
54945;SDS011;40846;44.788;20.486;2023-03-22T00:28:10;28.08;;;11.05;;
54945;SDS011;40846;44.788;20.486;2023-03-22T00:30:36;26.50;;;11.45;;
54945;SDS011;40846;44.788;20.486;2023-03-22T00:33:03;29.55;;;12.90;;
54945;SDS011;40846;44.788;20.486;2023-03-22T00:35:29;24.23;;;11.70;;
54945;SDS011;40846;44.788;20.486;2023-03-22T00:37:55;26.65;;;11.82;;
54945;SDS011;40846;44.788;20.486;2023-03-22T00:40:21;23.30;;;10.70;;
54945;SDS011;40846;44.788;20.486;2023-03-22T00:42:47;40.08;;;15.52;;
54945;SDS011;40846;44.788;20.486;2023-03-22T00:45:14;34.17;;;14.07;;
54945;SDS011;40846;44.788;20.486;2023-03-22T00:47:40;26.63;;;12.85;;
54945;SDS011;40846;44.788;20.486;2023-03-22T00:50:06;22.20;;;12.23;;
54945;SDS011;40846;44.788;20.486;2023-03-22T00:52:32;31.33;;;13.63;;
54945;SDS011;40846;44.788;20.486;2023-03-22T00:54:58;28.55;;;13.48;;
54945;SDS011;40846;44.788;20.486;2023-03-22T00:57:24;31.58;;;14.10;;
54945;SDS011;40846;44.788;20.486;2023-03-22T00:59:50;30.02;;;13.70;;
54945;SDS011;40846;44.788;20.486;2023-03-22T01:02:18;30.55;;;14.18;;
54945;SDS011;40846;44.788;20.486;2023-03-22T01:04:44;29.80;;;14.15;;
54945;SDS011;40846;44.788;20.486;2023-03-22T01:07:14;31.80;;;13.73;;
54945;SDS011;40846;44.788;20.486;2023-03-22T01:09:48;27.15;;;13.63;;
54945;SDS011;40846;44.788;20.486;2023-03-22T01:12:15;29.35;;;14.05;;
54945;SDS011;40846;44.788;20.486;2023-03-22T01:14:41;32.83;;;14.00;;
54945;SDS011;40846;44.788;20.486;2023-03-22T01:17:08;31.75;;;14.50;;
54945;SDS011;40846;44.788;20.486;2023-03-22T01:19:35;29.65;;;14.50;;
54945;SDS011;40846;44.788;20.486;2023-03-22T01:22:03;34.45;;;15.50;;
54945;SDS011;40846;44.788;20.486;2023-03-22T01:24:29;29.63;;;14.27;;
54945;SDS011;40846;44.788;20.486;2023-03-22T01:26:56;29.52;;;14.13;;
54945;SDS011;40846;44.788;20.486;2023-03-22T01:29:22;26.67;;;13.45;;
54945;SDS011;40846;44.788;20.486;2023-03-22T01:31:48;30.75;;;14.13;;
54945;SDS011;40846;44.788;20.486;2023-03-22T01:34:14;25.98;;;13.93;;
54945;SDS011;40846;44.788;20.486;2023-03-22T01:36:41;32.28;;;15.15;;
54945;SDS011;40846;44.788;20.486;2023-03-22T01:39:07;31.90;;;13.98;;
54945;SDS011;40846;44.788;20.486;2023-03-22T01:41:34;30.05;;;14.20;;
54945;SDS011;40846;44.788;20.486;2023-03-22T01:46:40;33.00;;;15.40;;
54945;SDS011;40846;44.788;20.486;2023-03-22T01:49:08;29.05;;;13.98;;
54945;SDS011;40846;44.788;20.486;2023-03-22T01:51:36;31.10;;;14.95;;
54945;SDS011;40846;44.788;20.486;2023-03-22T01:54:04;35.53;;;15.50;;
54945;SDS011;40846;44.788;20.486;2023-03-22T01:56:32;32.40;;;14.30;;
54945;SDS011;40846;44.788;20.486;2023-03-22T01:58:59;32.97;;;14.63;;
54945;SDS011;40846;44.788;20.486;2023-03-22T02:01:26;24.58;;;13.15;;
54945;SDS011;40846;44.788;20.486;2023-03-22T02:03:57;27.67;;;13.50;;
54945;SDS011;40846;44.788;20.486;2023-03-22T02:06:23;31.23;;;14.45;;
54945;SDS011;40846;44.788;20.486;2023-03-22T02:08:50;26.90;;;14.75;;
54945;SDS011;40846;44.788;20.486;2023-03-22T02:11:31;36.35;;;13.68;;
54945;SDS011;40846;44.788;20.486;2023-03-22T02:26:51;36.67;;;14.98;;
54945;SDS011;40846;44.788;20.486;2023-03-22T02:29:28;29.73;;;13.50;;
54945;SDS011;40846;44.788;20.486;2023-03-22T02:34:48;37.63;;;12.85;;
54945;SDS011;40846;44.788;20.486;2023-03-22T02:40:06;27.63;;;12.77;;
54945;SDS011;40846;44.788;20.486;2023-03-22T02:45:30;26.13;;;14.60;;
54945;SDS011;40846;44.788;20.486;2023-03-22T02:48:10;28.60;;;13.60;;
54945;SDS011;40846;44.788;20.486;2023-03-22T02:53:16;34.70;;;15.32;;
54945;SDS011;40846;44.788;20.486;2023-03-22T02:55:47;25.88;;;13.70;;
54945;SDS011;40846;44.788;20.486;2023-03-22T02:58:17;28.05;;;14.38;;
54945;SDS011;40846;44.788;20.486;2023-03-22T03:00:45;33.85;;;15.35;;
54945;SDS011;40846;44.788;20.486;2023-03-22T03:03:13;29.75;;;14.32;;
54945;SDS011;40846;44.788;20.486;2023-03-22T03:05:42;28.15;;;13.15;;
54945;SDS011;40846;44.788;20.486;2023-03-22T03:08:09;34.45;;;15.20;;
54945;SDS011;40846;44.788;20.486;2023-03-22T03:10:38;36.70;;;14.32;;
54945;SDS011;40846;44.788;20.486;2023-03-22T03:13:05;22.88;;;13.10;;
54945;SDS011;40846;44.788;20.486;2023-03-22T03:15:33;31.45;;;14.63;;
54945;SDS011;40846;44.788;20.486;2023-03-22T03:18:09;31.25;;;13.95;;
54945;SDS011;40846;44.788;20.486;2023-03-22T03:28:38;27.85;;;15.00;;
54945;SDS011;40846;44.788;20.486;2023-03-22T03:33:33;29.15;;;13.70;;
54945;SDS011;40846;44.788;20.486;2023-03-22T03:36:07;33.00;;;13.90;;
54945;SDS011;40846;44.788;20.486;2023-03-22T03:38:35;35.95;;;14.70;;
54945;SDS011;40846;44.788;20.486;2023-03-22T03:41:04;28.05;;;13.57;;
54945;SDS011;40846;44.788;20.486;2023-03-22T03:43:31;32.50;;;14.50;;
54945;SDS011;40846;44.788;20.486;2023-03-22T03:45:58;32.55;;;14.55;;
54945;SDS011;40846;44.788;20.486;2023-03-22T03:48:26;29.90;;;14.82;;
54945;SDS011;40846;44.788;20.486;2023-03-22T03:50:53;24.40;;;12.88;;
54945;SDS011;40846;44.788;20.486;2023-03-22T03:53:19;28.02;;;11.73;;
54945;SDS011;40846;44.788;20.486;2023-03-22T03:55:45;25.15;;;13.30;;
54945;SDS011;40846;44.788;20.486;2023-03-22T03:58:11;24.05;;;13.20;;
54945;SDS011;40846;44.788;20.486;2023-03-22T04:00:37;29.48;;;14.60;;
54945;SDS011;40846;44.788;20.486;2023-03-22T04:03:04;27.17;;;13.15;;
54945;SDS011;40846;44.788;20.486;2023-03-22T04:05:30;24.38;;;13.65;;
54945;SDS011;40846;44.788;20.486;2023-03-22T04:07:56;33.20;;;14.02;;
54945;SDS011;40846;44.788;20.486;2023-03-22T04:10:22;27.60;;;13.77;;
54945;SDS011;40846;44.788;20.486;2023-03-22T04:12:48;28.02;;;13.80;;
54945;SDS011;40846;44.788;20.486;2023-03-22T04:15:14;26.05;;;12.90;;
54945;SDS011;40846;44.788;20.486;2023-03-22T04:17:41;28.50;;;11.52;;
54945;SDS011;40846;44.788;20.486;2023-03-22T04:20:07;25.80;;;13.35;;
54945;SDS011;40846;44.788;20.486;2023-03-22T04:22:35;26.83;;;13.23;;
54945;SDS011;40846;44.788;20.486;2023-03-22T04:25:05;29.65;;;13.75;;
54945;SDS011;40846;44.788;20.486;2023-03-22T04:27:35;24.58;;;12.52;;
54945;SDS011;40846;44.788;20.486;2023-03-22T04:30:03;25.00;;;13.02;;
54945;SDS011;40846;44.788;20.486;2023-03-22T04:32:29;24.88;;;13.52;;
54945;SDS011;40846;44.788;20.486;2023-03-22T04:34:55;30.52;;;13.27;;
54945;SDS011;40846;44.788;20.486;2023-03-22T04:37:21;33.05;;;13.20;;
54945;SDS011;40846;44.788;20.486;2023-03-22T04:39:51;23.90;;;12.60;;
54945;SDS011;40846;44.788;20.486;2023-03-22T04:42:18;26.77;;;12.00;;
54945;SDS011;40846;44.788;20.486;2023-03-22T04:44:44;26.27;;;13.27;;
54945;SDS011;40846;44.788;20.486;2023-03-22T04:47:10;31.80;;;13.75;;
54945;SDS011;40846;44.788;20.486;2023-03-22T04:49:36;27.23;;;13.98;;
54945;SDS011;40846;44.788;20.486;2023-03-22T04:52:02;27.55;;;14.50;;
54945;SDS011;40846;44.788;20.486;2023-03-22T04:54:29;28.83;;;15.13;;
54945;SDS011;40846;44.788;20.486;2023-03-22T04:56:55;28.40;;;14.38;;
54945;SDS011;40846;44.788;20.486;2023-03-22T04:59:21;30.70;;;13.52;;
54945;SDS011;40846;44.788;20.486;2023-03-22T05:01:47;31.67;;;13.60;;
54945;SDS011;40846;44.788;20.486;2023-03-22T05:04:14;24.15;;;13.05;;
54945;SDS011;40846;44.788;20.486;2023-03-22T05:06:41;23.35;;;12.55;;
54945;SDS011;40846;44.788;20.486;2023-03-22T05:09:07;32.33;;;14.65;;
54945;SDS011;40846;44.788;20.486;2023-03-22T05:11:33;29.75;;;13.90;;
54945;SDS011;40846;44.788;20.486;2023-03-22T05:14:00;33.55;;;14.57;;
54945;SDS011;40846;44.788;20.486;2023-03-22T05:16:26;33.90;;;15.27;;
54945;SDS011;40846;44.788;20.486;2023-03-22T05:18:52;28.05;;;15.32;;
54945;SDS011;40846;44.788;20.486;2023-03-22T05:21:21;23.25;;;14.23;;
54945;SDS011;40846;44.788;20.486;2023-03-22T05:23:52;26.80;;;15.07;;
54945;SDS011;40846;44.788;20.486;2023-03-22T05:26:18;26.55;;;14.93;;
54945;SDS011;40846;44.788;20.486;2023-03-22T05:28:48;26.02;;;14.30;;
54945;SDS011;40846;44.788;20.486;2023-03-22T05:31:14;29.80;;;13.70;;
54945;SDS011;40846;44.788;20.486;2023-03-22T05:33:41;24.67;;;13.35;;
54945;SDS011;40846;44.788;20.486;2023-03-22T05:36:08;36.67;;;15.38;;
54945;SDS011;40846;44.788;20.486;2023-03-22T05:38:35;24.38;;;13.60;;
54945;SDS011;40846;44.788;20.486;2023-03-22T05:41:02;19.63;;;12.55;;
54945;SDS011;40846;44.788;20.486;2023-03-22T05:43:28;31.48;;;13.85;;
54945;SDS011;40846;44.788;20.486;2023-03-22T05:45:54;25.75;;;14.63;;
54945;SDS011;40846;44.788;20.486;2023-03-22T05:48:20;27.80;;;13.65;;
54945;SDS011;40846;44.788;20.486;2023-03-22T05:50:46;28.20;;;13.18;;
54945;SDS011;40846;44.788;20.486;2023-03-22T05:53:14;24.55;;;15.00;;
54945;SDS011;40846;44.788;20.486;2023-03-22T05:55:40;28.80;;;13.80;;
54945;SDS011;40846;44.788;20.486;2023-03-22T05:58:06;26.38;;;13.80;;
54945;SDS011;40846;44.788;20.486;2023-03-22T06:00:33;25.17;;;12.45;;
54945;SDS011;40846;44.788;20.486;2023-03-22T06:02:59;29.42;;;12.70;;
54945;SDS011;40846;44.788;20.486;2023-03-22T06:05:28;27.75;;;12.48;;
54945;SDS011;40846;44.788;20.486;2023-03-22T06:08:00;26.20;;;13.38;;
54945;SDS011;40846;44.788;20.486;2023-03-22T06:10:26;24.88;;;12.63;;
54945;SDS011;40846;44.788;20.486;2023-03-22T06:12:53;31.60;;;13.98;;
54945;SDS011;40846;44.788;20.486;2023-03-22T06:15:19;24.73;;;13.50;;
54945;SDS011;40846;44.788;20.486;2023-03-22T06:17:45;23.65;;;12.35;;
54945;SDS011;40846;44.788;20.486;2023-03-22T06:20:11;30.25;;;16.33;;
54945;SDS011;40846;44.788;20.486;2023-03-22T06:22:39;28.77;;;13.32;;
54945;SDS011;40846;44.788;20.486;2023-03-22T06:25:06;28.25;;;13.30;;
54945;SDS011;40846;44.788;20.486;2023-03-22T06:27:33;21.30;;;11.80;;
54945;SDS011;40846;44.788;20.486;2023-03-22T06:29:59;25.33;;;11.68;;
54945;SDS011;40846;44.788;20.486;2023-03-22T06:32:25;20.77;;;12.02;;
54945;SDS011;40846;44.788;20.486;2023-03-22T06:34:52;22.63;;;11.73;;
54945;SDS011;40846;44.788;20.486;2023-03-22T06:37:18;25.05;;;11.18;;
54945;SDS011;40846;44.788;20.486;2023-03-22T06:39:44;26.63;;;12.38;;
54945;SDS011;40846;44.788;20.486;2023-03-22T06:42:10;18.95;;;9.60;;
54945;SDS011;40846;44.788;20.486;2023-03-22T06:44:37;25.67;;;11.38;;
54945;SDS011;40846;44.788;20.486;2023-03-22T06:47:06;22.60;;;10.98;;
54945;SDS011;40846;44.788;20.486;2023-03-22T06:49:32;25.50;;;10.65;;
54945;SDS011;40846;44.788;20.486;2023-03-22T06:51:59;20.10;;;10.98;;
54945;SDS011;40846;44.788;20.486;2023-03-22T06:54:26;28.80;;;11.45;;
54945;SDS011;40846;44.788;20.486;2023-03-22T06:56:52;20.52;;;11.52;;
54945;SDS011;40846;44.788;20.486;2023-03-22T06:59:18;19.77;;;10.95;;
54945;SDS011;40846;44.788;20.486;2023-03-22T07:01:44;23.33;;;11.00;;
54945;SDS011;40846;44.788;20.486;2023-03-22T07:04:12;20.08;;;10.93;;
54945;SDS011;40846;44.788;20.486;2023-03-22T07:06:38;32.65;;;12.40;;
54945;SDS011;40846;44.788;20.486;2023-03-22T07:09:04;39.50;;;14.65;;
54945;SDS011;40846;44.788;20.486;2023-03-22T07:11:30;19.48;;;11.27;;
54945;SDS011;40846;44.788;20.486;2023-03-22T07:13:56;18.83;;;11.07;;
54945;SDS011;40846;44.788;20.486;2023-03-22T07:16:22;24.13;;;11.05;;
54945;SDS011;40846;44.788;20.486;2023-03-22T07:18:48;18.95;;;11.55;;
54945;SDS011;40846;44.788;20.486;2023-03-22T07:21:14;23.52;;;11.23;;
54945;SDS011;40846;44.788;20.486;2023-03-22T07:23:40;23.30;;;11.98;;
54945;SDS011;40846;44.788;20.486;2023-03-22T07:26:07;21.60;;;11.32;;
54945;SDS011;40846;44.788;20.486;2023-03-22T07:28:33;22.08;;;10.70;;
54945;SDS011;40846;44.788;20.486;2023-03-22T07:31:00;19.17;;;10.82;;
54945;SDS011;40846;44.788;20.486;2023-03-22T07:33:27;27.70;;;10.82;;
54945;SDS011;40846;44.788;20.486;2023-03-22T07:35:54;18.80;;;10.65;;
54945;SDS011;40846;44.788;20.486;2023-03-22T07:38:20;15.73;;;10.27;;
54945;SDS011;40846;44.788;20.486;2023-03-22T07:40:46;21.15;;;10.35;;
54945;SDS011;40846;44.788;20.486;2023-03-22T07:43:14;17.00;;;9.73;;
54945;SDS011;40846;44.788;20.486;2023-03-22T07:45:40;22.77;;;9.23;;
54945;SDS011;40846;44.788;20.486;2023-03-22T07:48:07;15.43;;;9.18;;
54945;SDS011;40846;44.788;20.486;2023-03-22T07:50:35;18.50;;;8.85;;
54945;SDS011;40846;44.788;20.486;2023-03-22T07:53:02;19.20;;;10.02;;
54945;SDS011;40846;44.788;20.486;2023-03-22T07:55:28;15.52;;;9.75;;
54945;SDS011;40846;44.788;20.486;2023-03-22T07:57:54;16.65;;;9.27;;
54945;SDS011;40846;44.788;20.486;2023-03-22T08:00:21;14.25;;;9.05;;
54945;SDS011;40846;44.788;20.486;2023-03-22T08:02:47;21.75;;;8.75;;
54945;SDS011;40846;44.788;20.486;2023-03-22T08:05:13;18.80;;;9.32;;
54945;SDS011;40846;44.788;20.486;2023-03-22T08:07:39;19.52;;;9.55;;
54945;SDS011;40846;44.788;20.486;2023-03-22T08:10:06;16.17;;;9.07;;
54945;SDS011;40846;44.788;20.486;2023-03-22T08:12:32;15.52;;;9.98;;
54945;SDS011;40846;44.788;20.486;2023-03-22T08:14:58;19.70;;;10.35;;
54945;SDS011;40846;44.788;20.486;2023-03-22T08:17:25;20.40;;;10.35;;
54945;SDS011;40846;44.788;20.486;2023-03-22T08:19:51;22.20;;;10.77;;
54945;SDS011;40846;44.788;20.486;2023-03-22T08:22:20;27.63;;;10.75;;
54945;SDS011;40846;44.788;20.486;2023-03-22T08:24:52;18.05;;;10.68;;
54945;SDS011;40846;44.788;20.486;2023-03-22T08:27:19;19.38;;;10.40;;
54945;SDS011;40846;44.788;20.486;2023-03-22T08:29:45;27.33;;;11.45;;
54945;SDS011;40846;44.788;20.486;2023-03-22T08:32:14;22.73;;;11.90;;
54945;SDS011;40846;44.788;20.486;2023-03-22T08:34:41;24.90;;;12.20;;
54945;SDS011;40846;44.788;20.486;2023-03-22T08:37:07;17.80;;;11.70;;
54945;SDS011;40846;44.788;20.486;2023-03-22T08:39:34;19.60;;;13.07;;
54945;SDS011;40846;44.788;20.486;2023-03-22T08:42:01;19.45;;;11.63;;
54945;SDS011;40846;44.788;20.486;2023-03-22T08:44:27;21.70;;;11.10;;
54945;SDS011;40846;44.788;20.486;2023-03-22T08:46:53;17.13;;;11.13;;
54945;SDS011;40846;44.788;20.486;2023-03-22T08:49:19;23.88;;;12.48;;
54945;SDS011;40846;44.788;20.486;2023-03-22T08:51:45;17.95;;;11.55;;
54945;SDS011;40846;44.788;20.486;2023-03-22T08:54:11;18.88;;;11.93;;
54945;SDS011;40846;44.788;20.486;2023-03-22T08:56:38;19.13;;;11.38;;
54945;SDS011;40846;44.788;20.486;2023-03-22T08:59:08;19.70;;;12.23;;
54945;SDS011;40846;44.788;20.486;2023-03-22T09:01:35;17.85;;;11.70;;
54945;SDS011;40846;44.788;20.486;2023-03-22T09:04:02;15.60;;;11.40;;
54945;SDS011;40846;44.788;20.486;2023-03-22T09:06:28;28.45;;;12.52;;
54945;SDS011;40846;44.788;20.486;2023-03-22T09:08:58;21.23;;;12.18;;
54945;SDS011;40846;44.788;20.486;2023-03-22T09:11:25;23.63;;;12.23;;
54945;SDS011;40846;44.788;20.486;2023-03-22T09:13:52;23.92;;;12.32;;
54945;SDS011;40846;44.788;20.486;2023-03-22T09:16:18;23.20;;;12.15;;
54945;SDS011;40846;44.788;20.486;2023-03-22T09:18:44;21.05;;;13.93;;
54945;SDS011;40846;44.788;20.486;2023-03-22T09:21:10;25.73;;;12.82;;
54945;SDS011;40846;44.788;20.486;2023-03-22T09:23:37;23.77;;;12.13;;
54945;SDS011;40846;44.788;20.486;2023-03-22T09:26:04;33.10;;;12.13;;
54945;SDS011;40846;44.788;20.486;2023-03-22T09:28:30;32.90;;;12.77;;
54945;SDS011;40846;44.788;20.486;2023-03-22T09:31:00;32.78;;;13.00;;
54945;SDS011;40846;44.788;20.486;2023-03-22T09:33:27;23.83;;;12.57;;
54945;SDS011;40846;44.788;20.486;2023-03-22T09:35:54;18.63;;;11.98;;
54945;SDS011;40846;44.788;20.486;2023-03-22T09:38:21;22.98;;;12.77;;
54945;SDS011;40846;44.788;20.486;2023-03-22T09:43:47;21.25;;;12.68;;
54945;SDS011;40846;44.788;20.486;2023-03-22T09:46:16;23.15;;;11.73;;
54945;SDS011;40846;44.788;20.486;2023-03-22T09:48:43;23.70;;;12.77;;
54945;SDS011;40846;44.788;20.486;2023-03-22T09:51:22;25.48;;;12.55;;
54945;SDS011;40846;44.788;20.486;2023-03-22T09:53:50;21.00;;;11.02;;
54945;SDS011;40846;44.788;20.486;2023-03-22T09:56:18;21.45;;;11.38;;
54945;SDS011;40846;44.788;20.486;2023-03-22T10:06:18;18.65;;;10.35;;
54945;SDS011;40846;44.788;20.486;2023-03-22T10:11:45;18.40;;;10.07;;
54945;SDS011;40846;44.788;20.486;2023-03-22T10:14:16;19.05;;;11.55;;
54945;SDS011;40846;44.788;20.486;2023-03-22T10:16:47;16.25;;;11.30;;
54945;SDS011;40846;44.788;20.486;2023-03-22T10:21:43;20.00;;;10.55;;
54945;SDS011;40846;44.788;20.486;2023-03-22T10:24:13;12.60;;;9.55;;
54945;SDS011;40846;44.788;20.486;2023-03-22T10:26:41;16.20;;;9.00;;
54945;SDS011;40846;44.788;20.486;2023-03-22T10:31:37;14.00;;;10.00;;
54945;SDS011;40846;44.788;20.486;2023-03-22T10:34:09;16.85;;;9.30;;
54945;SDS011;40846;44.788;20.486;2023-03-22T10:36:37;17.77;;;10.90;;
54945;SDS011;40846;44.788;20.486;2023-03-22T10:39:09;13.85;;;10.20;;
54945;SDS011;40846;44.788;20.486;2023-03-22T10:41:40;14.32;;;8.75;;
54945;SDS011;40846;44.788;20.486;2023-03-22T10:44:07;15.75;;;9.07;;
54945;SDS011;40846;44.788;20.486;2023-03-22T10:46:36;12.88;;;9.23;;
54945;SDS011;40846;44.788;20.486;2023-03-22T10:49:02;13.57;;;8.65;;
54945;SDS011;40846;44.788;20.486;2023-03-22T10:51:35;13.38;;;9.35;;
54945;SDS011;40846;44.788;20.486;2023-03-22T10:54:03;15.10;;;8.90;;
54945;SDS011;40846;44.788;20.486;2023-03-22T10:56:30;17.15;;;9.05;;
54945;SDS011;40846;44.788;20.486;2023-03-22T10:58:56;15.32;;;9.75;;
54945;SDS011;40846;44.788;20.486;2023-03-22T11:01:27;16.33;;;9.13;;
54945;SDS011;40846;44.788;20.486;2023-03-22T11:03:57;16.35;;;8.93;;
54945;SDS011;40846;44.788;20.486;2023-03-22T11:06:25;15.23;;;9.30;;
54945;SDS011;40846;44.788;20.486;2023-03-22T11:08:56;15.05;;;8.63;;
54945;SDS011;40846;44.788;20.486;2023-03-22T11:13:59;13.77;;;9.00;;
54945;SDS011;40846;44.788;20.486;2023-03-22T11:16:26;14.38;;;8.82;;
54945;SDS011;40846;44.788;20.486;2023-03-22T11:18:53;10.55;;;6.97;;
54945;SDS011;40846;44.788;20.486;2023-03-22T11:21:22;9.85;;;6.88;;
54945;SDS011;40846;44.788;20.486;2023-03-22T11:23:54;14.57;;;5.97;;
54945;SDS011;40846;44.788;20.486;2023-03-22T11:26:27;10.77;;;6.70;;
54945;SDS011;40846;44.788;20.486;2023-03-22T11:28:53;11.38;;;6.28;;
54945;SDS011;40846;44.788;20.486;2023-03-22T11:31:26;11.02;;;6.00;;
54945;SDS011;40846;44.788;20.486;2023-03-22T11:33:57;9.38;;;5.65;;
54945;SDS011;40846;44.788;20.486;2023-03-22T11:36:23;10.90;;;6.57;;
54945;SDS011;40846;44.788;20.486;2023-03-22T11:38:57;15.05;;;7.13;;
54945;SDS011;40846;44.788;20.486;2023-03-22T11:41:25;7.47;;;5.20;;
54945;SDS011;40846;44.788;20.486;2023-03-22T11:43:52;8.05;;;5.30;;
54945;SDS011;40846;44.788;20.486;2023-03-22T11:46:20;12.15;;;5.85;;
54945;SDS011;40846;44.788;20.486;2023-03-22T11:48:48;9.77;;;5.75;;
54945;SDS011;40846;44.788;20.486;2023-03-22T11:51:16;13.95;;;6.32;;
54945;SDS011;40846;44.788;20.486;2023-03-22T11:53:44;10.32;;;5.20;;
54945;SDS011;40846;44.788;20.486;2023-03-22T11:56:11;9.65;;;5.78;;
54945;SDS011;40846;44.788;20.486;2023-03-22T11:58:46;12.75;;;5.40;;
54945;SDS011;40846;44.788;20.486;2023-03-22T12:01:23;12.93;;;5.47;;
54945;SDS011;40846;44.788;20.486;2023-03-22T12:03:53;8.63;;;4.63;;
54945;SDS011;40846;44.788;20.486;2023-03-22T12:06:21;10.00;;;5.07;;
54945;SDS011;40846;44.788;20.486;2023-03-22T12:08:55;8.02;;;4.45;;
54945;SDS011;40846;44.788;20.486;2023-03-22T12:11:27;8.35;;;4.45;;
54945;SDS011;40846;44.788;20.486;2023-03-22T12:13:56;7.32;;;4.47;;
54945;SDS011;40846;44.788;20.486;2023-03-22T12:16:25;8.68;;;5.18;;
54945;SDS011;40846;44.788;20.486;2023-03-22T12:21:27;7.38;;;4.32;;
54945;SDS011;40846;44.788;20.486;2023-03-22T12:23:54;10.10;;;4.78;;
54945;SDS011;40846;44.788;20.486;2023-03-22T12:26:23;11.15;;;4.72;;
54945;SDS011;40846;44.788;20.486;2023-03-22T12:31:37;9.52;;;4.28;;
54945;SDS011;40846;44.788;20.486;2023-03-22T12:34:14;10.18;;;3.60;;
54945;SDS011;40846;44.788;20.486;2023-03-22T12:36:43;7.22;;;3.35;;
54945;SDS011;40846;44.788;20.486;2023-03-22T12:39:18;10.05;;;4.43;;
54945;SDS011;40846;44.788;20.486;2023-03-22T12:41:47;6.88;;;3.20;;
54945;SDS011;40846;44.788;20.486;2023-03-22T12:44:16;8.63;;;3.65;;
54945;SDS011;40846;44.788;20.486;2023-03-22T12:49:56;7.95;;;3.83;;
54945;SDS011;40846;44.788;20.486;2023-03-22T12:51:58;6.55;;;4.13;;
54945;SDS011;40846;44.788;20.486;2023-03-22T12:54:25;11.40;;;4.90;;
54945;SDS011;40846;44.788;20.486;2023-03-22T12:56:52;36.63;;;5.78;;
54945;SDS011;40846;44.788;20.486;2023-03-22T12:59:23;7.88;;;4.93;;
54945;SDS011;40846;44.788;20.486;2023-03-22T13:01:58;12.90;;;4.90;;
54945;SDS011;40846;44.788;20.486;2023-03-22T13:09:38;7.43;;;4.18;;
54945;SDS011;40846;44.788;20.486;2023-03-22T13:22:28;10.88;;;4.93;;
54945;SDS011;40846;44.788;20.486;2023-03-22T13:27:56;10.15;;;5.25;;
54945;SDS011;40846;44.788;20.486;2023-03-22T13:30:54;11.23;;;4.57;;
54945;SDS011;40846;44.788;20.486;2023-03-22T13:35:54;10.32;;;3.97;;
54945;SDS011;40846;44.788;20.486;2023-03-22T13:40:52;10.32;;;4.82;;
54945;SDS011;40846;44.788;20.486;2023-03-22T13:43:21;6.90;;;4.28;;
54945;SDS011;40846;44.788;20.486;2023-03-22T14:01:37;8.13;;;3.90;;
54945;SDS011;40846;44.788;20.486;2023-03-22T14:04:06;8.85;;;4.00;;
54945;SDS011;40846;44.788;20.486;2023-03-22T14:06:36;14.57;;;4.38;;
54945;SDS011;40846;44.788;20.486;2023-03-22T14:09:12;6.32;;;3.95;;
54945;SDS011;40846;44.788;20.486;2023-03-22T14:14:21;8.65;;;4.30;;
54945;SDS011;40846;44.788;20.486;2023-03-22T14:16:49;6.30;;;3.55;;
54945;SDS011;40846;44.788;20.486;2023-03-22T14:19:18;6.57;;;3.67;;
54945;SDS011;40846;44.788;20.486;2023-03-22T14:21:52;8.02;;;4.85;;
54945;SDS011;40846;44.788;20.486;2023-03-22T14:24:21;6.53;;;3.80;;
54945;SDS011;40846;44.788;20.486;2023-03-22T14:26:50;11.57;;;4.38;;
54945;SDS011;40846;44.788;20.486;2023-03-22T14:29:38;17.88;;;3.78;;
54945;SDS011;40846;44.788;20.486;2023-03-22T14:32:04;8.30;;;3.65;;
54945;SDS011;40846;44.788;20.486;2023-03-22T14:34:33;9.95;;;3.72;;
54945;SDS011;40846;44.788;20.486;2023-03-22T14:37:02;6.90;;;3.50;;
54945;SDS011;40846;44.788;20.486;2023-03-22T14:39:32;11.50;;;4.32;;
54945;SDS011;40846;44.788;20.486;2023-03-22T14:42:00;11.10;;;4.20;;
54945;SDS011;40846;44.788;20.486;2023-03-22T14:44:28;6.13;;;3.92;;
54945;SDS011;40846;44.788;20.486;2023-03-22T14:47:01;6.25;;;4.10;;
54945;SDS011;40846;44.788;20.486;2023-03-22T14:49:38;7.38;;;4.03;;
54945;SDS011;40846;44.788;20.486;2023-03-22T14:52:04;5.15;;;3.15;;
54945;SDS011;40846;44.788;20.486;2023-03-22T14:54:30;8.82;;;3.85;;
54945;SDS011;40846;44.788;20.486;2023-03-22T14:57:03;7.85;;;4.95;;
54945;SDS011;40846;44.788;20.486;2023-03-22T14:59:29;8.85;;;4.85;;
54945;SDS011;40846;44.788;20.486;2023-03-22T15:01:58;8.70;;;3.88;;
54945;SDS011;40846;44.788;20.486;2023-03-22T15:04:26;8.80;;;4.75;;
54945;SDS011;40846;44.788;20.486;2023-03-22T15:06:57;14.77;;;4.68;;
54945;SDS011;40846;44.788;20.486;2023-03-22T15:09:23;9.27;;;3.90;;
54945;SDS011;40846;44.788;20.486;2023-03-22T15:11:52;5.82;;;3.40;;
54945;SDS011;40846;44.788;20.486;2023-03-22T15:14:20;8.50;;;3.13;;
54945;SDS011;40846;44.788;20.486;2023-03-22T15:16:46;10.50;;;4.03;;
54945;SDS011;40846;44.788;20.486;2023-03-22T15:19:17;4.63;;;3.17;;
54945;SDS011;40846;44.788;20.486;2023-03-22T15:21:44;12.98;;;3.35;;
54945;SDS011;40846;44.788;20.486;2023-03-22T15:26:52;6.75;;;4.30;;
54945;SDS011;40846;44.788;20.486;2023-03-22T15:29:20;11.20;;;4.18;;
54945;SDS011;40846;44.788;20.486;2023-03-22T15:31:47;10.05;;;3.80;;
54945;SDS011;40846;44.788;20.486;2023-03-22T15:34:20;9.05;;;4.32;;
54945;SDS011;40846;44.788;20.486;2023-03-22T15:36:48;14.55;;;4.00;;
54945;SDS011;40846;44.788;20.486;2023-03-22T15:39:22;16.55;;;5.78;;
54945;SDS011;40846;44.788;20.486;2023-03-22T15:41:50;12.85;;;3.85;;
54945;SDS011;40846;44.788;20.486;2023-03-22T15:51:46;7.60;;;3.95;;
54945;SDS011;40846;44.788;20.486;2023-03-22T15:54:14;9.73;;;5.78;;
54945;SDS011;40846;44.788;20.486;2023-03-22T15:56:45;7.85;;;4.22;;
54945;SDS011;40846;44.788;20.486;2023-03-22T15:59:25;8.02;;;4.43;;
54945;SDS011;40846;44.788;20.486;2023-03-22T16:01:54;11.05;;;5.05;;
54945;SDS011;40846;44.788;20.486;2023-03-22T16:04:22;11.93;;;6.30;;
54945;SDS011;40846;44.788;20.486;2023-03-22T16:06:49;11.88;;;4.65;;
54945;SDS011;40846;44.788;20.486;2023-03-22T16:09:15;9.95;;;4.00;;
54945;SDS011;40846;44.788;20.486;2023-03-22T16:11:42;9.90;;;4.07;;
54945;SDS011;40846;44.788;20.486;2023-03-22T16:14:10;6.78;;;3.20;;
54945;SDS011;40846;44.788;20.486;2023-03-22T16:16:36;7.57;;;3.80;;
54945;SDS011;40846;44.788;20.486;2023-03-22T16:19:02;11.38;;;4.05;;